createdAt,value
2023-04-14T00:00:51.616Z,18.65
2023-04-14T00:03:20.048Z,13.77
2023-04-14T00:05:52.768Z,19.65
2023-04-14T00:08:21.091Z,13.18
2023-04-14T00:10:52.130Z,13.85
2023-04-14T00:13:20.544Z,18.88
2023-04-14T00:15:51.607Z,13.40
2023-04-14T00:18:19.891Z,12.68
2023-04-14T00:20:54.199Z,10.77
2023-04-14T00:23:22.697Z,11.27
2023-04-14T00:25:51.862Z,11.95
2023-04-14T00:28:20.140Z,16.70
2023-04-14T00:30:51.539Z,18.27
2023-04-14T00:33:19.857Z,15.35
2023-04-14T00:35:51.976Z,12.52
2023-04-14T00:38:20.374Z,10.93
2023-04-14T00:40:50.716Z,12.60
2023-04-14T00:43:20.553Z,15.15
2023-04-14T00:45:50.624Z,12.38
2023-04-14T00:48:20.385Z,15.10
2023-04-14T00:50:49.389Z,15.30
2023-04-14T00:53:20.077Z,18.90
2023-04-14T00:55:50.980Z,11.50
2023-04-14T00:58:19.345Z,14.15
2023-04-14T01:00:53.979Z,14.50
2023-04-14T01:03:23.333Z,11.93
2023-04-14T01:05:51.848Z,12.35
2023-04-14T01:08:22.113Z,11.23
2023-04-14T01:11:02.213Z,11.57
2023-04-14T01:13:42.347Z,14.93
2023-04-14T01:16:18.871Z,10.93
2023-04-14T01:18:56.401Z,15.10
2023-04-14T01:21:33.099Z,9.23
2023-04-14T01:24:31.884Z,16.98
2023-04-14T01:27:12.261Z,18.90
2023-04-14T01:30:10.390Z,17.13
2023-04-14T01:32:46.791Z,10.48
2023-04-14T01:35:20.971Z,12.05
2023-04-14T01:37:55.611Z,19.85
2023-04-14T01:40:26.017Z,14.45
2023-04-14T01:43:02.733Z,15.93
2023-04-14T01:45:38.197Z,16.48
2023-04-14T01:48:09.483Z,12.02
2023-04-14T01:50:39.204Z,16.30
2023-04-14T01:53:09.520Z,15.65
2023-04-14T01:55:40.092Z,12.80
2023-04-14T01:58:10.616Z,18.42
2023-04-14T02:00:41.942Z,20.45
2023-04-14T02:03:13.162Z,21.13
2023-04-14T02:05:43.740Z,15.07
2023-04-14T02:08:15.198Z,15.02
2023-04-14T02:10:49.450Z,13.90
2023-04-14T02:13:21.512Z,22.42
2023-04-14T02:15:51.705Z,17.48
2023-04-14T02:18:23.552Z,13.10
2023-04-14T02:20:53.567Z,17.75
2023-04-14T02:23:21.885Z,21.42
2023-04-14T02:25:56.355Z,17.30
2023-04-14T02:28:30.190Z,15.68
2023-04-14T02:31:00.122Z,21.13
2023-04-14T02:33:36.767Z,22.52
2023-04-14T02:36:12.002Z,18.73
2023-04-14T02:38:47.279Z,18.75
2023-04-14T02:41:23.697Z,16.65
2023-04-14T02:44:03.063Z,18.52
2023-04-14T02:46:39.025Z,15.38
2023-04-14T02:49:13.060Z,31.30
2023-04-14T02:51:43.074Z,24.85
2023-04-14T02:54:11.952Z,23.55
2023-04-14T02:56:40.910Z,25.02
2023-04-14T02:59:09.481Z,23.35
2023-04-14T03:01:38.619Z,24.70
2023-04-14T03:04:08.665Z,27.38
2023-04-14T03:06:39.248Z,25.13
2023-04-14T03:09:08.663Z,24.48
2023-04-14T03:11:38.506Z,25.48
2023-04-14T03:14:08.407Z,22.45
2023-04-14T03:16:39.423Z,22.33
2023-04-14T03:19:10.398Z,27.85
2023-04-14T03:21:40.711Z,26.50
2023-04-14T03:24:14.003Z,16.52
2023-04-14T03:26:44.522Z,19.30
2023-04-14T03:29:15.574Z,20.65
2023-04-14T03:31:47.797Z,18.55
2023-04-14T03:34:19.204Z,17.38
2023-04-14T03:36:49.653Z,21.33
2023-04-14T03:39:22.357Z,13.80
2023-04-14T03:41:52.622Z,17.45
2023-04-14T03:44:22.540Z,17.58
2023-04-14T03:46:50.932Z,11.23
2023-04-14T03:49:21.679Z,18.90
2023-04-14T03:51:53.563Z,14.32
2023-04-14T03:54:25.486Z,16.85
2023-04-14T03:56:56.890Z,16.40
2023-04-14T03:59:28.160Z,16.45
2023-04-14T04:01:57.365Z,13.80
2023-04-14T04:04:27.589Z,18.13
2023-04-14T04:06:56.079Z,16.95
2023-04-14T04:09:25.688Z,18.58
2023-04-14T04:11:55.112Z,15.68
2023-04-14T04:14:25.042Z,17.00
2023-04-14T04:16:55.222Z,15.57
2023-04-14T04:19:26.830Z,13.65
2023-04-14T04:21:58.484Z,11.55
2023-04-14T04:24:30.443Z,18.45
2023-04-14T04:26:59.594Z,17.40
2023-04-14T04:29:28.481Z,16.30
2023-04-14T04:31:57.065Z,20.63
2023-04-14T04:34:27.843Z,17.95
2023-04-14T04:36:56.202Z,16.30
2023-04-14T04:39:24.655Z,14.32
2023-04-14T04:42:03.160Z,15.80
2023-04-14T04:44:33.197Z,13.23
2023-04-14T04:47:07.532Z,16.30
2023-04-14T04:49:37.229Z,18.63
2023-04-14T04:52:05.808Z,22.98
2023-04-14T04:54:34.316Z,13.57
2023-04-14T04:57:02.847Z,16.58
2023-04-14T04:59:31.223Z,13.25
2023-04-14T05:02:12.026Z,13.45
2023-04-14T05:05:00.718Z,20.45
2023-04-14T05:07:29.002Z,13.93
2023-04-14T05:09:57.248Z,12.55
2023-04-14T05:12:25.813Z,19.98
2023-04-14T05:14:54.041Z,15.45
2023-04-14T05:17:22.339Z,13.40
2023-04-14T05:19:52.161Z,13.68
2023-04-14T05:22:20.540Z,17.52
2023-04-14T05:24:51.176Z,10.73
2023-04-14T05:27:19.567Z,14.63
2023-04-14T05:29:51.062Z,17.70
2023-04-14T05:32:21.701Z,14.45
2023-04-14T05:34:51.571Z,18.25
2023-04-14T05:37:19.967Z,17.83
2023-04-14T05:39:50.380Z,21.90
2023-04-14T05:42:18.670Z,17.52
2023-04-14T05:44:47.753Z,12.70
2023-04-14T05:47:16.291Z,15.40
2023-04-14T05:49:44.539Z,14.18
2023-04-14T05:52:14.197Z,15.65
2023-04-14T05:54:43.358Z,14.88
2023-04-14T05:57:11.758Z,8.95
2023-04-14T05:59:40.060Z,18.23
2023-04-14T06:02:08.451Z,21.38
2023-04-14T06:04:37.258Z,14.10
2023-04-14T06:07:05.795Z,18.65
2023-04-14T06:09:35.425Z,16.75
2023-04-14T06:12:03.879Z,13.15
2023-04-14T06:14:32.221Z,12.23
2023-04-14T06:17:01.121Z,13.30
2023-04-14T06:19:29.506Z,15.40
2023-04-14T06:21:57.788Z,14.30
2023-04-14T06:24:26.094Z,16.15
2023-04-14T06:26:55.730Z,14.43
2023-04-14T06:29:24.013Z,16.20
2023-04-14T06:31:52.326Z,11.77
2023-04-14T06:34:20.680Z,12.52
2023-04-14T06:36:49.022Z,17.02
2023-04-14T06:39:17.358Z,13.73
2023-04-14T06:41:45.760Z,9.75
2023-04-14T06:44:15.549Z,17.27
2023-04-14T06:46:43.902Z,14.18
2023-04-14T06:49:12.222Z,14.65
2023-04-14T06:51:40.742Z,13.40
2023-04-14T06:54:09.038Z,11.80
2023-04-14T06:56:37.354Z,12.30
2023-04-14T06:59:05.692Z,14.50
2023-04-14T07:01:35.387Z,9.73
2023-04-14T07:04:07.758Z,18.25
2023-04-14T07:06:36.367Z,15.70
2023-04-14T07:09:05.028Z,9.90
2023-04-14T07:11:33.355Z,12.55
2023-04-14T07:14:04.201Z,14.85
2023-04-14T07:16:33.930Z,19.52
2023-04-14T07:19:02.775Z,14.63
2023-04-14T07:21:31.894Z,13.18
2023-04-14T07:24:00.330Z,8.15
2023-04-14T07:26:28.873Z,9.60
2023-04-14T07:28:57.683Z,13.88
2023-04-14T07:31:26.761Z,8.27
2023-04-14T07:33:56.622Z,8.63
2023-04-14T07:36:24.921Z,12.15
2023-04-14T07:38:53.206Z,13.13
2023-04-14T07:41:21.518Z,8.68
2023-04-14T07:43:49.850Z,8.88
2023-04-14T07:46:18.186Z,13.30
2023-04-14T07:48:46.783Z,7.45
2023-04-14T07:51:16.662Z,9.77
2023-04-14T07:53:45.236Z,10.80
2023-04-14T07:56:14.060Z,8.10
2023-04-14T07:58:42.535Z,10.75
2023-04-14T08:01:10.886Z,10.35
2023-04-14T08:03:41.300Z,5.32
2023-04-14T08:06:11.248Z,10.02
2023-04-14T08:08:41.126Z,9.85
2023-04-14T08:11:09.497Z,11.13
2023-04-14T08:13:37.801Z,9.98
2023-04-14T08:16:06.260Z,10.60
2023-04-14T08:18:34.581Z,8.77
2023-04-14T08:21:02.896Z,14.18
2023-04-14T08:23:31.406Z,10.82
2023-04-14T08:26:01.239Z,12.93
2023-04-14T08:28:30.051Z,7.90
2023-04-14T08:30:58.336Z,7.15
2023-04-14T08:33:27.230Z,12.95
2023-04-14T08:35:58.071Z,8.32
2023-04-14T08:38:29.309Z,7.05
2023-04-14T08:40:59.891Z,6.68
2023-04-14T08:43:28.562Z,9.75
2023-04-14T08:45:58.692Z,8.10
2023-04-14T08:48:31.831Z,7.95
2023-04-14T08:51:08.624Z,6.57
2023-04-14T08:53:45.400Z,8.20
2023-04-14T08:56:18.217Z,8.23
2023-04-14T08:58:50.245Z,6.47
2023-04-14T09:01:19.258Z,8.57
2023-04-14T09:03:49.138Z,8.05
2023-04-14T09:06:18.867Z,9.60
2023-04-14T09:08:50.468Z,11.30
2023-04-14T09:11:20.283Z,12.50
2023-04-14T09:13:51.455Z,7.38
2023-04-14T09:16:20.861Z,8.10
2023-04-14T09:18:53.586Z,8.02
2023-04-14T09:21:50.758Z,13.25
2023-04-14T09:24:12.191Z,11.63
2023-04-14T09:26:42.712Z,7.30
2023-04-14T09:29:13.808Z,11.65
2023-04-14T09:31:42.618Z,7.18
2023-04-14T09:34:18.781Z,7.05
2023-04-14T09:37:03.729Z,11.38
2023-04-14T09:39:32.291Z,9.85
2023-04-14T09:42:02.869Z,7.35
2023-04-14T09:44:31.896Z,7.53
2023-04-14T09:47:02.498Z,5.75
2023-04-14T09:49:31.261Z,10.65
2023-04-14T09:52:07.489Z,10.23
2023-04-14T09:54:36.363Z,10.60
2023-04-14T09:57:06.283Z,10.65
2023-04-14T09:59:37.779Z,6.47
2023-04-14T10:02:08.363Z,6.18
2023-04-14T10:04:38.427Z,6.50
2023-04-14T10:07:09.033Z,6.18
2023-04-14T10:09:38.958Z,8.60
2023-04-14T10:12:14.345Z,8.02
2023-04-14T10:14:58.262Z,6.72
2023-04-14T10:17:29.471Z,10.50
2023-04-14T10:19:59.054Z,7.82
2023-04-14T10:22:29.266Z,6.45
2023-04-14T10:25:00.281Z,6.40
2023-04-14T10:27:33.076Z,7.18
2023-04-14T10:30:04.168Z,8.52
2023-04-14T10:32:35.855Z,5.45
2023-04-14T10:35:08.048Z,8.18
2023-04-14T10:37:36.849Z,6.40
2023-04-14T10:40:08.694Z,8.95
2023-04-14T10:43:02.741Z,5.95
2023-04-14T10:45:31.291Z,7.97
2023-04-14T10:47:59.957Z,7.85
2023-04-14T10:50:30.193Z,9.82
2023-04-14T10:52:58.982Z,8.18
2023-04-14T10:55:28.953Z,7.60
2023-04-14T10:58:06.951Z,7.85
2023-04-14T11:00:39.648Z,8.07
2023-04-14T11:03:13.678Z,10.70
2023-04-14T11:05:45.107Z,9.77
2023-04-14T11:08:18.460Z,6.13
2023-04-14T11:10:51.398Z,9.73
2023-04-14T11:13:21.271Z,10.10
2023-04-14T11:15:59.131Z,8.13
2023-04-14T11:18:37.223Z,7.00
2023-04-14T11:21:08.552Z,4.72
2023-04-14T11:23:38.423Z,7.72
2023-04-14T11:26:09.408Z,5.47
2023-04-14T11:28:42.106Z,6.75
2023-04-14T11:31:14.180Z,5.85
2023-04-14T11:33:44.701Z,7.63
2023-04-14T11:36:13.622Z,8.90
2023-04-14T11:38:43.795Z,7.78
2023-04-14T11:41:16.011Z,9.07
2023-04-14T11:43:48.995Z,8.93
2023-04-14T11:46:20.808Z,5.80
2023-04-14T11:48:49.542Z,7.60
2023-04-14T11:51:20.709Z,5.53
2023-04-14T11:53:52.927Z,6.38
2023-04-14T11:56:21.345Z,7.30
2023-04-14T11:58:53.008Z,4.72
2023-04-14T12:01:24.311Z,5.65
2023-04-14T12:03:54.178Z,4.13
2023-04-14T12:06:22.934Z,6.53
2023-04-14T12:08:53.684Z,5.15
2023-04-14T12:11:22.727Z,5.38
2023-04-14T12:13:53.282Z,5.68
2023-04-14T12:16:24.834Z,7.57
2023-04-14T12:18:53.181Z,6.63
2023-04-14T12:21:21.760Z,4.93
2023-04-14T12:23:50.210Z,6.22
2023-04-14T12:26:21.316Z,6.15
2023-04-14T12:28:58.650Z,8.27
2023-04-14T12:31:33.470Z,9.07
2023-04-14T12:34:04.236Z,6.05
2023-04-14T12:36:49.070Z,5.85
2023-04-14T12:39:18.327Z,6.45
2023-04-14T12:41:46.903Z,4.78
2023-04-14T12:44:19.704Z,6.63
2023-04-14T12:46:52.745Z,9.20
2023-04-14T12:49:36.635Z,5.25
2023-04-14T12:52:08.843Z,3.25
2023-04-14T12:54:52.206Z,6.32
2023-04-14T12:57:21.984Z,6.30
2023-04-14T12:59:52.134Z,7.07
2023-04-14T13:02:29.663Z,5.63
2023-04-14T13:05:00.462Z,7.25
2023-04-14T13:07:29.002Z,4.60
2023-04-14T13:09:57.582Z,4.43
2023-04-14T13:12:27.378Z,6.25
2023-04-14T13:14:57.201Z,7.50
2023-04-14T13:17:25.830Z,3.33
2023-04-14T13:19:54.326Z,6.13
2023-04-14T13:22:22.643Z,4.18
2023-04-14T13:24:51.739Z,5.30
2023-04-14T13:27:20.898Z,6.47
2023-04-14T13:29:52.240Z,4.65
2023-04-14T13:32:22.139Z,7.32
2023-04-14T13:34:52.561Z,6.10
2023-04-14T13:37:21.864Z,4.78
2023-04-14T13:39:50.428Z,3.95
2023-04-14T13:42:23.911Z,7.18
2023-04-14T13:44:52.796Z,6.47
2023-04-14T13:47:22.662Z,7.47
2023-04-14T13:49:51.000Z,8.15
2023-04-14T13:52:19.364Z,11.68
2023-04-14T13:54:50.427Z,9.18
2023-04-14T13:57:18.909Z,6.15
2023-04-14T13:59:47.558Z,6.50
2023-04-14T14:02:16.198Z,8.07
2023-04-14T14:04:46.087Z,5.43
2023-04-14T14:07:14.614Z,4.85
2023-04-14T14:09:44.437Z,5.72
2023-04-14T14:12:13.596Z,5.45
2023-04-14T14:14:42.061Z,7.15
2023-04-14T14:17:13.711Z,6.82
2023-04-14T14:19:42.301Z,6.45
2023-04-14T14:22:11.933Z,5.68
2023-04-14T14:24:41.833Z,6.80
2023-04-14T14:27:10.418Z,5.30
2023-04-14T14:29:38.842Z,7.88
2023-04-14T14:32:07.146Z,7.88
2023-04-14T14:34:35.591Z,6.15
2023-04-14T14:37:04.017Z,6.38
2023-04-14T14:39:33.893Z,6.90
2023-04-14T14:42:06.188Z,8.95
2023-04-14T14:44:34.551Z,7.97
2023-04-14T14:47:03.567Z,11.80
2023-04-14T14:49:32.743Z,4.75
2023-04-14T14:52:04.149Z,2.78
2023-04-14T14:54:33.955Z,4.22
2023-04-14T14:57:02.588Z,3.22
2023-04-14T14:59:31.054Z,2.85
2023-04-14T15:02:01.650Z,2.92
2023-04-14T15:04:30.329Z,5.45
2023-04-14T15:06:58.777Z,7.30
2023-04-14T15:09:27.367Z,3.72
2023-04-14T15:11:57.453Z,5.55
2023-04-14T15:14:26.605Z,3.53
2023-04-14T15:16:55.448Z,3.17
2023-04-14T15:19:24.354Z,4.85
2023-04-14T15:21:53.019Z,5.45
2023-04-14T15:24:21.506Z,6.53
2023-04-14T15:26:49.795Z,7.78
2023-04-14T15:29:20.523Z,7.32
2023-04-14T15:31:51.646Z,6.38
2023-04-14T15:34:21.515Z,9.88
2023-04-14T15:36:50.082Z,8.27
2023-04-14T15:39:18.634Z,10.93
2023-04-14T15:41:49.212Z,7.65
2023-04-14T15:44:19.512Z,6.28
2023-04-14T15:46:51.098Z,9.65
2023-04-14T15:49:24.546Z,6.03
2023-04-14T15:51:57.102Z,5.95
2023-04-14T15:54:28.529Z,7.40
2023-04-14T15:57:01.755Z,7.35
2023-04-14T15:59:32.796Z,5.82
2023-04-14T16:02:06.116Z,4.35
2023-04-14T16:07:29.515Z,4.57
2023-04-14T16:09:58.277Z,5.32
2023-04-14T16:12:28.709Z,8.10
2023-04-14T16:14:58.455Z,6.65
2023-04-14T16:17:27.095Z,4.88
2023-04-14T16:19:55.601Z,6.18
2023-04-14T16:22:24.130Z,6.22
2023-04-14T16:24:52.652Z,5.35
2023-04-14T16:27:20.984Z,6.25
2023-04-14T16:29:52.152Z,6.88
2023-04-14T16:32:21.818Z,4.82
2023-04-14T16:34:54.329Z,4.72
2023-04-14T16:37:26.223Z,7.15
2023-04-14T16:39:57.857Z,7.97
2023-04-14T16:42:26.460Z,10.07
2023-04-14T16:44:55.191Z,6.10
2023-04-14T16:47:25.528Z,7.72
2023-04-14T16:49:54.034Z,11.18
2023-04-14T16:52:22.483Z,5.28
2023-04-14T16:54:54.533Z,6.63
2023-04-14T16:57:23.226Z,5.07
2023-04-14T16:59:52.213Z,4.50
2023-04-14T17:02:20.605Z,9.25
2023-04-14T17:04:50.517Z,3.78
2023-04-14T17:07:19.036Z,5.55
2023-04-14T17:09:49.779Z,3.88
2023-04-14T17:12:18.403Z,5.55
2023-04-14T17:14:46.814Z,5.53
2023-04-14T17:17:15.124Z,3.17
2023-04-14T17:19:44.002Z,3.40
2023-04-14T17:22:15.208Z,4.05
2023-04-14T17:24:44.377Z,4.05
2023-04-14T17:27:12.950Z,4.20
2023-04-14T17:29:42.071Z,4.57
2023-04-14T17:32:10.715Z,4.30
2023-04-14T17:34:39.231Z,5.60
2023-04-14T17:37:07.566Z,3.35
2023-04-14T17:39:37.646Z,3.03
2023-04-14T17:42:06.012Z,2.58
2023-04-14T17:44:36.228Z,3.72
2023-04-14T17:47:12.833Z,6.10
2023-04-14T17:49:41.403Z,4.50
2023-04-14T17:52:09.950Z,4.75
2023-04-14T17:54:39.870Z,4.25
2023-04-14T17:57:09.584Z,4.30
2023-04-14T17:59:38.003Z,3.25
2023-04-14T18:02:06.343Z,3.58
2023-04-14T18:04:34.741Z,3.42
2023-04-14T18:07:03.346Z,3.17
2023-04-14T18:09:32.016Z,4.40
2023-04-14T18:12:01.898Z,4.07
2023-04-14T18:14:31.103Z,5.57
2023-04-14T18:16:59.760Z,5.82
2023-04-14T18:19:28.326Z,4.93
2023-04-14T18:21:56.988Z,6.55
2023-04-14T18:26:57.240Z,9.05
2023-04-14T18:29:27.625Z,3.88
2023-04-14T18:31:56.644Z,6.63
2023-04-14T18:34:25.040Z,3.47
2023-04-14T18:36:53.614Z,5.20
2023-04-14T18:39:22.211Z,7.38
2023-04-14T18:41:50.573Z,7.82
2023-04-14T18:44:18.898Z,9.52
2023-04-14T18:46:51.382Z,8.27
2023-04-14T18:49:20.080Z,8.98
2023-04-14T18:51:52.104Z,10.05
2023-04-14T18:54:22.901Z,5.40
2023-04-14T18:56:51.414Z,4.82
2023-04-14T18:59:20.082Z,10.07
2023-04-14T19:01:52.857Z,4.28
2023-04-14T19:04:21.508Z,4.78
2023-04-14T19:06:49.928Z,10.38
2023-04-14T19:09:18.259Z,9.45
2023-04-14T19:11:48.925Z,8.45
2023-04-14T19:14:17.383Z,9.68
2023-04-14T19:16:46.617Z,11.40
2023-04-14T19:19:16.756Z,7.25
2023-04-14T19:21:45.207Z,9.27
2023-04-14T19:24:20.027Z,7.38
2023-04-14T19:26:51.289Z,7.20
2023-04-14T19:29:19.648Z,9.90
2023-04-14T19:31:53.716Z,9.98
2023-04-14T19:34:23.512Z,7.97
2023-04-14T19:36:51.801Z,11.82
2023-04-14T19:39:20.813Z,10.35
2023-04-14T19:41:49.290Z,7.35
2023-04-14T19:44:18.120Z,6.15
2023-04-14T19:46:49.002Z,7.85
2023-04-14T19:49:17.494Z,8.80
2023-04-14T19:51:50.126Z,9.20
2023-04-14T19:54:18.409Z,5.05
2023-04-14T19:56:52.437Z,9.32
2023-04-14T19:59:23.229Z,8.60
2023-04-14T20:01:52.723Z,7.15
2023-04-14T20:04:21.767Z,7.10
2023-04-14T20:06:55.868Z,7.65
2023-04-14T20:09:30.465Z,6.57
2023-04-14T20:11:58.766Z,6.35
2023-04-14T20:14:28.087Z,7.35
2023-04-14T20:16:56.898Z,6.47
2023-04-14T20:19:25.364Z,7.97
2023-04-14T20:21:57.903Z,8.95
2023-04-14T20:24:26.308Z,5.05
2023-04-14T20:26:55.501Z,8.05
2023-04-14T20:29:25.216Z,7.82
2023-04-14T20:31:53.862Z,5.60
2023-04-14T20:34:22.222Z,6.80
2023-04-14T20:36:53.189Z,13.52
2023-04-14T20:39:22.997Z,6.93
2023-04-14T20:41:51.731Z,7.53
2023-04-14T20:44:20.065Z,9.93
2023-04-14T20:46:52.124Z,8.18
2023-04-14T20:49:20.594Z,8.63
2023-04-14T20:51:51.941Z,6.85
2023-04-14T20:54:20.228Z,7.78
2023-04-14T20:56:50.432Z,6.78
2023-04-14T20:59:18.931Z,9.15
2023-04-14T21:01:51.440Z,9.90
2023-04-14T21:04:20.049Z,5.50
2023-04-14T21:06:52.201Z,6.63
2023-04-14T21:09:21.308Z,7.78
2023-04-14T21:12:15.517Z,5.57
2023-04-14T21:15:28.285Z,7.55
2023-04-14T21:17:29.245Z,11.95
2023-04-14T21:19:57.834Z,7.65
2023-04-14T21:22:26.138Z,7.63
2023-04-14T21:24:54.620Z,11.00
2023-04-14T21:27:24.368Z,11.70
2023-04-14T21:29:52.769Z,9.60
2023-04-14T21:32:21.840Z,10.35
2023-04-14T21:34:51.115Z,12.73
2023-04-14T21:37:19.872Z,10.27
2023-04-14T21:39:49.218Z,11.63
2023-04-14T21:42:17.524Z,8.80
2023-04-14T21:44:49.381Z,10.32
2023-04-14T21:47:17.951Z,10.40
2023-04-14T21:49:50.765Z,11.55
2023-04-14T21:52:19.277Z,13.30
2023-04-14T21:54:50.565Z,9.80
2023-04-14T21:57:18.844Z,8.57
2023-04-14T22:00:13.356Z,9.38
2023-04-14T22:02:42.926Z,11.98
2023-04-14T22:05:11.942Z,9.20
2023-04-14T22:07:40.422Z,11.38
2023-04-14T22:10:10.041Z,10.57
2023-04-14T22:12:39.907Z,6.82
2023-04-14T22:15:11.061Z,12.32
2023-04-14T22:17:39.869Z,8.07
2023-04-14T22:20:10.478Z,8.15
2023-04-14T22:22:38.757Z,13.45
2023-04-14T22:25:09.751Z,8.85
2023-04-14T22:27:38.176Z,14.10
2023-04-14T22:30:07.919Z,10.48
2023-04-14T22:32:37.698Z,10.57
2023-04-14T22:35:06.872Z,10.43
2023-04-14T22:37:35.189Z,9.20
2023-04-14T22:40:03.638Z,10.27
2023-04-14T22:42:32.107Z,8.48
2023-04-14T22:45:01.481Z,9.80
2023-04-14T22:47:29.854Z,11.45
2023-04-14T22:50:00.204Z,10.98
2023-04-14T22:52:28.616Z,14.45
2023-04-14T22:54:57.143Z,11.00
2023-04-14T22:57:26.580Z,11.63
2023-04-14T22:59:55.084Z,9.23
2023-04-14T23:02:23.651Z,10.48
2023-04-14T23:04:52.124Z,13.65
2023-04-14T23:07:22.097Z,12.68
2023-04-14T23:09:50.386Z,14.82
2023-04-14T23:12:18.725Z,13.15
2023-04-14T23:14:46.958Z,9.38
2023-04-14T23:17:15.340Z,13.85
2023-04-14T23:19:43.757Z,12.13
2023-04-14T23:22:12.089Z,10.80
2023-04-14T23:24:41.972Z,9.98
2023-04-14T23:27:10.295Z,11.68
2023-04-14T23:29:39.057Z,12.63
2023-04-14T23:32:09.022Z,16.48
2023-04-14T23:34:37.661Z,13.35
2023-04-14T23:37:06.822Z,13.20
2023-04-14T23:39:35.759Z,12.43
2023-04-14T23:42:05.689Z,9.68
2023-04-14T23:44:34.030Z,14.52
2023-04-14T23:47:02.711Z,12.52
2023-04-14T23:49:34.972Z,10.73
2023-04-14T23:52:04.620Z,11.45
2023-04-14T23:54:33.613Z,11.55
2023-04-14T23:57:02.681Z,14.65
2023-04-14T23:59:32.691Z,8.68
